createdAt,value
2023-03-13T00:03:06.300Z,1.76
2023-03-13T00:09:24.539Z,1.73
2023-03-13T00:15:08.316Z,1.69
2023-03-13T00:25:28.660Z,1.62
2023-03-13T00:27:55.459Z,1.55
2023-03-13T00:30:27.617Z,1.52
2023-03-13T00:33:25.992Z,1.45
2023-03-13T00:43:34.695Z,1.23
2023-03-13T00:46:02.102Z,1.18
2023-03-13T00:48:31.262Z,1.13
2023-03-13T00:56:03.767Z,1.05
2023-03-13T01:09:16.709Z,0.82
2023-03-13T01:11:44.744Z,0.80
2023-03-13T01:14:19.907Z,0.77
2023-03-13T01:16:46.981Z,0.73
2023-03-13T01:19:16.134Z,0.69
2023-03-13T01:21:44.666Z,0.65
2023-03-13T01:24:11.395Z,0.60
2023-03-13T01:26:37.999Z,0.59
2023-03-13T01:29:04.596Z,0.54
2023-03-13T01:31:34.031Z,0.50
2023-03-13T01:34:03.776Z,0.46
2023-03-13T01:36:30.894Z,0.48
2023-03-13T01:38:59.926Z,0.42
2023-03-13T01:41:28.529Z,0.39
2023-03-13T01:43:57.829Z,0.39
2023-03-13T01:46:27.672Z,0.38
2023-03-13T01:49:05.958Z,0.38
2023-03-13T01:51:40.177Z,0.36
2023-03-13T01:54:18.045Z,0.33
2023-03-13T01:56:54.165Z,0.32
2023-03-13T01:59:26.888Z,0.33
2023-03-13T02:01:57.392Z,0.32
2023-03-13T02:04:26.584Z,0.32
2023-03-13T02:06:58.295Z,0.31
2023-03-13T02:09:28.132Z,0.30
2023-03-13T02:12:04.631Z,0.27
2023-03-13T02:14:35.751Z,0.27
2023-03-13T02:17:03.513Z,0.27
2023-03-13T02:19:49.239Z,0.25
2023-03-13T02:22:27.820Z,0.22
2023-03-13T02:25:06.456Z,0.20
2023-03-13T02:27:33.013Z,0.16
2023-03-13T02:29:59.821Z,0.13
2023-03-13T02:32:29.583Z,0.12
2023-03-13T02:35:06.457Z,0.10
2023-03-13T02:37:33.536Z,0.08
2023-03-13T02:40:04.147Z,0.06
2023-03-13T02:42:31.548Z,0.06
2023-03-13T02:44:58.037Z,0.05
2023-03-13T02:47:26.436Z,0.07
2023-03-13T02:49:52.980Z,0.07
2023-03-13T02:52:38.849Z,0.03
2023-03-13T02:55:10.037Z,0.01
2023-03-13T02:57:36.539Z,0.01
2023-03-13T03:00:06.937Z,0.01
2023-03-13T03:02:33.420Z,0.02
2023-03-13T03:04:59.925Z,0.01
2023-03-13T03:07:26.416Z,0.01
2023-03-13T03:09:52.945Z,0.03
2023-03-13T03:12:19.422Z,0.03
2023-03-13T03:14:46.038Z,0.04
2023-03-13T03:17:16.709Z,0.01
2023-03-13T03:19:43.230Z,0.03
2023-03-13T03:22:09.770Z,0.01
2023-03-13T03:24:36.345Z,-0.03
2023-03-13T03:27:02.838Z,-0.01
2023-03-13T03:29:29.374Z,-0.03
2023-03-13T03:31:56.223Z,-0.03
2023-03-13T03:34:23.337Z,-0.05
2023-03-13T03:36:56.173Z,-0.05
2023-03-13T03:39:23.003Z,-0.08
2023-03-13T03:41:49.546Z,-0.10
2023-03-13T03:44:16.117Z,-0.08
2023-03-13T03:46:42.664Z,-0.06
2023-03-13T03:49:09.190Z,-0.05
2023-03-13T03:51:35.733Z,-0.03
2023-03-13T03:54:02.224Z,-0.04
2023-03-13T03:56:28.774Z,-0.03
2023-03-13T03:58:55.276Z,-0.04
2023-03-13T04:01:21.813Z,-0.05
2023-03-13T04:03:48.952Z,-0.03
2023-03-13T04:06:15.647Z,0.00
2023-03-13T04:08:42.166Z,0.03
2023-03-13T04:11:08.689Z,0.05
2023-03-13T04:13:35.150Z,0.08
2023-03-13T04:16:07.231Z,0.12
2023-03-13T04:18:33.877Z,0.17
2023-03-13T04:21:02.476Z,0.22
2023-03-13T04:23:29.239Z,0.27
2023-03-13T04:25:55.718Z,0.33
2023-03-13T04:28:22.315Z,0.41
2023-03-13T04:30:48.851Z,0.46
2023-03-13T04:33:15.341Z,0.52
2023-03-13T04:35:41.948Z,0.56
2023-03-13T04:38:08.574Z,0.59
2023-03-13T04:40:35.103Z,0.61
2023-03-13T04:43:01.635Z,0.63
2023-03-13T04:45:28.128Z,0.58
2023-03-13T04:47:54.691Z,0.57
2023-03-13T04:50:21.205Z,0.57
2023-03-13T04:52:49.594Z,0.58
2023-03-13T04:55:16.497Z,0.56
2023-03-13T04:57:43.102Z,0.57
2023-03-13T05:00:11.586Z,0.56
2023-03-13T05:02:38.159Z,0.59
2023-03-13T05:05:05.014Z,0.57
2023-03-13T05:07:31.669Z,0.90
2023-03-13T05:09:58.199Z,1.08
2023-03-13T05:12:24.697Z,1.19
2023-03-13T05:14:51.260Z,1.63
2023-03-13T05:17:17.733Z,1.86
2023-03-13T05:19:44.243Z,2.36
2023-03-13T05:22:10.784Z,2.64
2023-03-13T05:24:38.063Z,2.64
2023-03-13T05:27:05.198Z,2.58
2023-03-13T05:29:31.815Z,2.54
2023-03-13T05:31:58.321Z,2.58
2023-03-13T05:34:24.900Z,2.66
2023-03-13T05:36:51.396Z,2.57
2023-03-13T05:39:17.994Z,2.46
2023-03-13T05:41:44.479Z,2.35
2023-03-13T05:44:11.212Z,2.30
2023-03-13T05:46:37.732Z,2.34
2023-03-13T05:49:04.289Z,2.28
2023-03-13T05:51:30.814Z,2.22
2023-03-13T05:53:57.287Z,2.20
2023-03-13T05:56:23.846Z,2.13
2023-03-13T05:58:50.367Z,2.13
2023-03-13T06:01:16.896Z,2.12
2023-03-13T06:03:43.578Z,2.32
2023-03-13T06:06:10.152Z,2.45
2023-03-13T06:08:36.668Z,2.60
2023-03-13T06:11:03.662Z,2.75
2023-03-13T06:13:30.189Z,2.85
2023-03-13T06:15:58.298Z,3.24
2023-03-13T06:18:25.850Z,3.73
2023-03-13T06:20:58.563Z,3.80
2023-03-13T06:23:25.436Z,3.74
2023-03-13T06:25:51.960Z,3.66
2023-03-13T06:28:18.477Z,3.63
2023-03-13T06:30:47.995Z,3.70
2023-03-13T06:33:15.021Z,3.74
2023-03-13T06:35:55.363Z,3.80
2023-03-13T06:38:22.767Z,3.81
2023-03-13T06:40:49.250Z,3.94
2023-03-13T06:43:15.710Z,4.03
2023-03-13T06:45:42.225Z,4.11
2023-03-13T06:48:08.710Z,4.16
2023-03-13T06:50:39.075Z,4.23
2023-03-13T06:53:05.942Z,4.29
2023-03-13T06:55:32.985Z,4.37
2023-03-13T06:57:59.556Z,4.42
2023-03-13T07:00:26.152Z,4.44
2023-03-13T07:02:52.680Z,4.47
2023-03-13T07:05:19.258Z,4.45
2023-03-13T07:07:45.742Z,4.47
2023-03-13T07:10:12.269Z,4.57
2023-03-13T07:12:38.798Z,4.62
2023-03-13T07:15:06.392Z,4.65
2023-03-13T07:17:32.996Z,4.69
2023-03-13T07:19:59.577Z,4.70
2023-03-13T07:22:26.115Z,4.74
2023-03-13T07:24:52.701Z,4.89
2023-03-13T07:27:21.205Z,5.18
2023-03-13T07:29:48.020Z,5.49
2023-03-13T07:32:14.821Z,5.70
2023-03-13T07:34:44.593Z,5.75
2023-03-13T07:37:15.948Z,5.93
2023-03-13T07:39:43.766Z,6.07
2023-03-13T07:42:11.956Z,6.17
2023-03-13T07:44:38.625Z,6.20
2023-03-13T07:47:05.517Z,6.24
2023-03-13T07:49:32.136Z,6.36
2023-03-13T07:51:58.636Z,6.41
2023-03-13T07:54:25.172Z,6.54
2023-03-13T07:56:51.697Z,6.59
2023-03-13T07:59:18.239Z,6.68
2023-03-13T08:01:44.761Z,6.73
2023-03-13T08:04:14.521Z,6.81
2023-03-13T08:06:42.031Z,6.77
2023-03-13T08:09:09.121Z,6.99
2023-03-13T08:11:36.345Z,7.20
2023-03-13T08:14:03.043Z,7.27
2023-03-13T08:16:34.134Z,7.34
2023-03-13T08:19:01.918Z,7.60
2023-03-13T08:21:31.161Z,7.70
2023-03-13T08:24:00.232Z,7.78
2023-03-13T08:26:30.867Z,7.87
2023-03-13T08:29:03.282Z,7.89
2023-03-13T08:31:32.850Z,7.97
2023-03-13T08:34:00.202Z,7.90
2023-03-13T08:36:37.600Z,7.87
2023-03-13T08:39:07.640Z,7.80
2023-03-13T08:41:36.655Z,7.74
2023-03-13T08:44:07.292Z,7.78
2023-03-13T08:46:36.010Z,7.85
2023-03-13T08:49:04.318Z,7.85
2023-03-13T08:51:34.146Z,7.89
2023-03-13T08:54:01.484Z,7.80
2023-03-13T08:56:32.978Z,7.74
2023-03-13T08:59:02.171Z,7.71
2023-03-13T09:01:31.623Z,7.74
2023-03-13T09:04:00.650Z,7.90
2023-03-13T09:06:29.500Z,7.80
2023-03-13T09:08:58.213Z,7.73
2023-03-13T09:11:25.240Z,7.74
2023-03-13T09:13:51.947Z,7.91
2023-03-13T09:16:23.730Z,7.92
2023-03-13T09:18:51.830Z,8.02
2023-03-13T09:21:26.733Z,8.10
2023-03-13T09:23:53.781Z,8.19
2023-03-13T09:26:23.037Z,8.22
2023-03-13T09:28:51.229Z,8.26
2023-03-13T09:31:23.798Z,8.31
2023-03-13T09:33:51.266Z,8.38
2023-03-13T09:36:21.778Z,8.38
2023-03-13T09:38:50.195Z,8.39
2023-03-13T09:41:18.117Z,8.42
2023-03-13T09:43:50.878Z,8.29
2023-03-13T09:46:33.918Z,8.26
2023-03-13T09:49:05.347Z,8.21
2023-03-13T09:51:42.850Z,8.23
2023-03-13T09:54:32.338Z,8.33
2023-03-13T09:57:20.266Z,8.57
2023-03-13T09:59:57.572Z,8.90
2023-03-13T10:02:30.347Z,9.16
2023-03-13T10:05:19.887Z,9.37
2023-03-13T10:07:46.604Z,9.39
2023-03-13T10:10:41.352Z,9.53
2023-03-13T10:13:43.376Z,9.93
2023-03-13T10:16:13.246Z,10.55
2023-03-13T10:18:44.320Z,11.82
2023-03-13T10:21:18.906Z,12.57
2023-03-13T10:24:07.657Z,12.95
2023-03-13T10:26:37.034Z,13.92
2023-03-13T10:29:23.545Z,15.08
2023-03-13T10:32:04.615Z,16.35
2023-03-13T10:34:58.946Z,17.92
2023-03-13T10:37:30.921Z,17.24
2023-03-13T10:40:28.255Z,16.50
2023-03-13T10:43:02.073Z,16.69
2023-03-13T10:45:34.586Z,17.18
2023-03-13T10:48:10.431Z,17.78
2023-03-13T10:50:37.287Z,18.89
2023-03-13T10:53:23.060Z,18.94
2023-03-13T10:55:53.344Z,19.28
2023-03-13T10:58:41.304Z,18.99
2023-03-13T11:01:22.927Z,19.27
2023-03-13T11:03:52.075Z,19.55
2023-03-13T11:06:28.904Z,20.03
2023-03-13T11:09:01.856Z,22.42
2023-03-13T11:11:30.979Z,22.63
2023-03-13T11:14:14.726Z,22.48
2023-03-13T11:16:55.281Z,21.88
2023-03-13T11:20:00.775Z,20.19
2023-03-13T11:22:39.428Z,18.76
2023-03-13T11:25:18.039Z,18.84
2023-03-13T11:28:14.607Z,19.03
2023-03-13T11:30:48.509Z,20.57
2023-03-13T11:33:17.239Z,22.89
2023-03-13T11:35:49.895Z,23.68
2023-03-13T11:38:37.365Z,22.65
2023-03-13T11:41:06.830Z,20.58
2023-03-13T11:43:48.272Z,19.24
2023-03-13T11:46:32.481Z,19.05
2023-03-13T11:49:20.899Z,19.63
2023-03-13T11:52:09.775Z,21.82
2023-03-13T11:54:59.123Z,23.24
2023-03-13T11:57:32.829Z,26.23
2023-03-13T12:00:14.295Z,26.69
2023-03-13T12:02:51.469Z,27.40
2023-03-13T12:05:20.989Z,29.08
2023-03-13T12:07:53.685Z,30.73
2023-03-13T12:10:46.146Z,31.77
2023-03-13T12:13:22.295Z,31.00
2023-03-13T12:15:54.271Z,31.01
2023-03-13T12:18:30.415Z,32.89
2023-03-13T12:21:06.500Z,32.49
2023-03-13T12:23:39.442Z,32.11
2023-03-13T12:26:27.893Z,30.19
2023-03-13T12:29:17.181Z,32.12
2023-03-13T12:32:09.236Z,34.20
2023-03-13T12:34:35.645Z,34.38
2023-03-13T12:37:19.994Z,34.27
2023-03-13T12:40:02.684Z,33.01
2023-03-13T12:42:35.131Z,30.89
2023-03-13T12:45:02.191Z,31.40
2023-03-13T12:48:03.579Z,30.32
2023-03-13T12:51:01.463Z,31.24
2023-03-13T12:53:37.207Z,32.91
2023-03-13T12:56:26.157Z,32.47
2023-03-13T12:59:10.911Z,30.81
2023-03-13T13:01:44.251Z,30.76
2023-03-13T13:04:23.816Z,30.87
2023-03-13T13:06:55.830Z,27.94
2023-03-13T13:09:28.591Z,27.55
2023-03-13T13:12:16.516Z,25.37
2023-03-13T13:14:49.081Z,23.89
2023-03-13T13:17:40.614Z,22.79
2023-03-13T13:20:30.507Z,21.84
2023-03-13T13:23:16.197Z,22.45
2023-03-13T13:25:42.720Z,23.10
2023-03-13T13:28:26.392Z,23.66
2023-03-13T13:30:56.139Z,24.63
2023-03-13T13:33:35.661Z,26.28
2023-03-13T13:36:23.398Z,26.34
2023-03-13T13:38:50.236Z,27.02
2023-03-13T13:41:16.748Z,26.89
2023-03-13T13:43:48.174Z,28.28
2023-03-13T13:46:33.150Z,27.45
2023-03-13T13:49:05.915Z,27.25
2023-03-13T13:51:39.463Z,27.05
2023-03-13T13:54:46.170Z,27.94
2023-03-13T13:57:16.239Z,28.76
2023-03-13T13:59:44.740Z,29.31
2023-03-13T14:02:21.209Z,28.54
2023-03-13T14:05:05.083Z,29.69
2023-03-13T14:07:44.660Z,29.03
2023-03-13T14:10:31.896Z,28.16
2023-03-13T14:13:01.021Z,28.06
2023-03-13T14:15:29.048Z,27.50
2023-03-13T14:18:08.956Z,26.83
2023-03-13T14:20:57.408Z,25.84
2023-03-13T14:23:42.728Z,24.63
2023-03-13T14:26:12.199Z,23.93
2023-03-13T14:28:40.402Z,23.01
2023-03-13T14:31:07.262Z,22.50
2023-03-13T14:33:34.780Z,22.15
2023-03-13T14:36:02.266Z,21.20
2023-03-13T14:38:38.527Z,20.42
2023-03-13T14:41:05.166Z,20.48
2023-03-13T14:43:42.461Z,19.46
2023-03-13T14:46:19.136Z,18.97
2023-03-13T14:48:45.913Z,18.81
2023-03-13T14:51:22.051Z,18.62
2023-03-13T14:54:04.880Z,18.68
2023-03-13T14:56:42.336Z,18.51
2023-03-13T14:59:15.151Z,18.44
2023-03-13T15:01:41.795Z,18.25
2023-03-13T15:04:08.461Z,18.23
2023-03-13T15:06:35.028Z,18.16
2023-03-13T15:09:14.317Z,18.10
2023-03-13T15:12:00.346Z,18.04
2023-03-13T15:14:36.766Z,17.72
2023-03-13T15:17:06.717Z,17.59
2023-03-13T15:19:33.194Z,17.58
2023-03-13T15:21:59.769Z,17.71
2023-03-13T15:24:26.280Z,17.55
2023-03-13T15:26:52.731Z,17.45
2023-03-13T15:29:20.160Z,17.43
2023-03-13T15:31:46.691Z,17.34
2023-03-13T15:34:14.907Z,17.29
2023-03-13T15:36:42.499Z,17.06
2023-03-13T15:39:15.870Z,16.93
2023-03-13T15:41:42.902Z,16.91
2023-03-13T15:44:09.418Z,16.89
2023-03-13T15:46:36.120Z,16.87
2023-03-13T15:49:02.895Z,16.77
2023-03-13T15:51:29.613Z,16.78
2023-03-13T15:53:56.433Z,16.68
2023-03-13T15:56:23.330Z,16.67
2023-03-13T15:58:51.177Z,16.55
2023-03-13T16:01:18.974Z,16.46
2023-03-13T16:03:45.675Z,16.32
2023-03-13T16:06:18.970Z,16.22
2023-03-13T16:08:45.798Z,16.10
2023-03-13T16:11:16.976Z,15.99
2023-03-13T16:13:43.781Z,16.04
2023-03-13T16:16:23.097Z,15.92
2023-03-13T16:18:50.912Z,15.75
2023-03-13T16:21:29.266Z,15.65
2023-03-13T16:23:55.935Z,15.46
2023-03-13T16:26:26.161Z,15.39
2023-03-13T16:28:53.871Z,15.28
2023-03-13T16:31:21.769Z,15.22
2023-03-13T16:33:52.275Z,15.13
2023-03-13T16:36:28.140Z,15.15
2023-03-13T16:38:54.814Z,15.07
2023-03-13T16:41:23.487Z,15.02
2023-03-13T16:43:50.920Z,14.88
2023-03-13T16:46:32.715Z,14.79
2023-03-13T16:48:59.816Z,14.69
2023-03-13T16:51:27.410Z,14.62
2023-03-13T16:53:56.225Z,14.55
2023-03-13T16:56:31.787Z,14.54
2023-03-13T16:58:58.548Z,14.39
2023-03-13T17:01:26.021Z,14.28
2023-03-13T17:03:53.052Z,14.19
2023-03-13T17:06:22.755Z,14.10
2023-03-13T17:08:49.854Z,13.97
2023-03-13T17:11:19.258Z,13.91
2023-03-13T17:13:48.484Z,13.81
2023-03-13T17:16:21.750Z,13.69
2023-03-13T17:18:51.632Z,13.70
2023-03-13T17:21:23.640Z,13.59
2023-03-13T17:23:50.600Z,13.53
2023-03-13T17:26:34.104Z,13.46
2023-03-13T17:29:01.226Z,13.39
2023-03-13T17:31:28.902Z,13.28
2023-03-13T17:33:55.509Z,13.17
2023-03-13T17:36:24.809Z,13.09
2023-03-13T17:38:53.895Z,13.07
2023-03-13T17:41:23.726Z,13.02
2023-03-13T17:43:50.256Z,12.91
2023-03-13T17:46:22.550Z,12.90
2023-03-13T17:48:52.145Z,12.85
2023-03-13T17:51:21.782Z,12.86
2023-03-13T17:53:49.123Z,12.89
2023-03-13T17:56:17.254Z,12.81
2023-03-13T17:58:43.932Z,12.70
2023-03-13T18:01:13.408Z,12.52
2023-03-13T18:03:40.443Z,12.38
2023-03-13T18:06:45.037Z,12.28
2023-03-13T18:09:20.725Z,12.22
2023-03-13T18:11:48.592Z,12.18
2023-03-13T18:14:15.443Z,12.11
2023-03-13T18:16:50.545Z,12.04
2023-03-13T18:19:23.029Z,11.92
2023-03-13T18:21:51.883Z,11.89
2023-03-13T18:24:18.744Z,11.85
2023-03-13T18:26:46.560Z,11.76
2023-03-13T18:29:16.448Z,11.67
2023-03-13T18:31:43.790Z,11.63
2023-03-13T18:34:11.675Z,11.56
2023-03-13T18:36:39.226Z,11.56
2023-03-13T18:39:10.735Z,11.55
2023-03-13T18:41:37.203Z,11.46
2023-03-13T18:44:03.802Z,11.48
2023-03-13T18:46:31.873Z,11.44
2023-03-13T18:48:59.074Z,11.39
2023-03-13T18:51:27.278Z,11.31
2023-03-13T18:53:55.189Z,11.27
2023-03-13T18:56:28.406Z,11.24
2023-03-13T18:58:55.956Z,11.21
2023-03-13T19:01:25.021Z,11.21
2023-03-13T19:03:52.343Z,11.26
2023-03-13T19:06:30.087Z,11.18
2023-03-13T19:08:59.176Z,11.09
2023-03-13T19:11:31.191Z,11.03
2023-03-13T19:13:58.097Z,10.94
2023-03-13T19:16:31.998Z,10.90
2023-03-13T19:18:58.764Z,10.87
2023-03-13T19:21:27.527Z,10.79
2023-03-13T19:23:54.927Z,10.67
2023-03-13T19:26:33.375Z,10.65
2023-03-13T19:28:59.924Z,10.54
2023-03-13T19:31:27.163Z,10.44
2023-03-13T19:33:54.392Z,10.36
2023-03-13T19:36:24.846Z,10.26
2023-03-13T19:38:51.392Z,10.15
2023-03-13T19:41:18.091Z,10.03
2023-03-13T19:43:45.558Z,9.96
2023-03-13T19:46:27.090Z,9.95
2023-03-13T19:48:56.066Z,9.90
2023-03-13T19:51:24.150Z,9.93
2023-03-13T19:53:51.079Z,9.91
2023-03-13T19:56:17.578Z,9.82
2023-03-13T19:58:45.862Z,9.76
2023-03-13T20:01:17.447Z,9.76
2023-03-13T20:03:45.874Z,9.65
2023-03-13T20:06:18.791Z,9.57
2023-03-13T20:08:46.405Z,9.49
2023-03-13T20:11:14.539Z,9.48
2023-03-13T20:13:42.146Z,9.42
2023-03-13T20:16:10.910Z,9.34
2023-03-13T20:18:38.611Z,9.28
2023-03-13T20:21:05.876Z,9.22
2023-03-13T20:23:32.980Z,9.09
2023-03-13T20:26:04.846Z,8.99
2023-03-13T20:28:31.392Z,8.88
2023-03-13T20:30:57.938Z,8.75
2023-03-13T20:33:24.676Z,8.65
2023-03-13T20:35:51.201Z,8.49
2023-03-13T20:38:17.745Z,8.37
2023-03-13T20:40:51.572Z,8.21
2023-03-13T20:43:18.090Z,8.07
2023-03-13T20:45:45.025Z,7.99
2023-03-13T20:48:11.950Z,7.90
2023-03-13T20:50:38.554Z,7.83
2023-03-13T20:53:05.160Z,7.68
2023-03-13T20:55:32.739Z,7.52
2023-03-13T20:57:59.912Z,7.44
2023-03-13T21:00:26.520Z,7.41
2023-03-13T21:02:54.306Z,7.33
2023-03-13T21:05:20.856Z,7.26
2023-03-13T21:07:47.933Z,7.18
2023-03-13T21:10:15.011Z,7.12
2023-03-13T21:12:41.566Z,7.07
2023-03-13T21:15:08.996Z,7.00
2023-03-13T21:17:36.565Z,6.91
2023-03-13T21:20:10.770Z,6.87
2023-03-13T21:22:42.047Z,6.81
2023-03-13T21:25:10.425Z,6.73
2023-03-13T21:27:37.438Z,6.71
2023-03-13T21:30:06.466Z,6.71
2023-03-13T21:32:36.924Z,6.70
2023-03-13T21:35:04.457Z,6.72
2023-03-13T21:37:31.544Z,6.69
2023-03-13T21:39:58.071Z,6.62
2023-03-13T21:42:24.653Z,6.57
2023-03-13T21:44:51.184Z,6.48
2023-03-13T21:47:24.123Z,6.41
2023-03-13T21:49:55.099Z,6.33
2023-03-13T21:52:23.050Z,6.29
2023-03-13T21:54:49.780Z,6.29
2023-03-13T21:57:16.406Z,6.24
2023-03-13T21:59:43.268Z,6.25
2023-03-13T22:02:13.810Z,6.12
2023-03-13T22:04:40.521Z,5.98
2023-03-13T22:07:07.402Z,5.91
2023-03-13T22:09:33.987Z,5.91
2023-03-13T22:12:00.455Z,5.92
2023-03-13T22:14:28.028Z,5.94
2023-03-13T22:16:54.932Z,5.93
2023-03-13T22:19:21.430Z,5.91
2023-03-13T22:21:47.968Z,5.90
2023-03-13T22:24:14.569Z,5.88
2023-03-13T22:26:41.151Z,5.88
2023-03-13T22:29:07.639Z,5.84
2023-03-13T22:31:34.149Z,5.80
2023-03-13T22:34:00.626Z,5.77
2023-03-13T22:36:27.107Z,5.71
2023-03-13T22:38:53.621Z,5.72
2023-03-13T22:41:20.429Z,5.72
2023-03-13T22:43:46.967Z,5.74
2023-03-13T22:46:14.042Z,5.69
2023-03-13T22:48:40.698Z,5.61
2023-03-13T22:51:09.746Z,5.55
2023-03-13T22:53:38.978Z,5.56
2023-03-13T22:56:06.887Z,5.55
2023-03-13T22:58:34.124Z,5.50
2023-03-13T23:01:00.725Z,5.54
2023-03-13T23:03:27.224Z,5.50
2023-03-13T23:05:53.723Z,5.52
2023-03-13T23:08:20.232Z,5.49
2023-03-13T23:10:47.880Z,5.45
2023-03-13T23:13:15.086Z,5.45
2023-03-13T23:15:57.416Z,5.37
2023-03-13T23:18:25.807Z,5.58
2023-03-13T23:20:52.799Z,5.84
2023-03-13T23:23:19.754Z,6.06
2023-03-13T23:25:46.370Z,6.21
2023-03-13T23:28:13.188Z,6.26
2023-03-13T23:30:39.810Z,6.30
2023-03-13T23:33:06.333Z,6.37
2023-03-13T23:35:35.972Z,6.37
2023-03-13T23:38:02.487Z,6.37
2023-03-13T23:40:29.018Z,6.35
2023-03-13T23:42:55.654Z,6.35
2023-03-13T23:45:22.181Z,6.32
2023-03-13T23:47:48.724Z,6.30
2023-03-13T23:50:16.158Z,6.35
2023-03-13T23:52:43.033Z,6.36
2023-03-13T23:55:10.239Z,6.37
2023-03-13T23:57:39.911Z,6.38
